.
WxDataArchive / Data Records for 2012-03-18
2012-03-17 March 2012 2012-03-19

Data Records for Sunday, 18 March 2012

Time	Temp	Chill	HIndex	Humid	Dewpt	 Wind 	HiWind	WindDir	Rain 	Barom 
-----	----	-----	------	-----	-----	------	------	-------	-----	----- 
00:00	59.9	59.9	59.9	81	54.1	0	0	---	0.00	30.070 
00:05	59.8	59.8	59.8	82	54.3	0	0	---	0.00	30.070 
00:10	59.8	59.8	59.8	82	54.3	0	0	---	0.00	30.070 
00:15	59.8	59.8	59.8	82	54.3	0	0	---	0.00	30.064 
00:20	59.9	59.9	59.9	82	54.4	0	0	---	0.00	30.064 
00:25	59.9	59.9	59.9	82	54.4	0	0	---	0.00	30.064 
00:30	60.1	60.1	60.1	82	54.6	0	0	---	0.00	30.058 
00:35	60.2	60.2	60.2	82	54.7	0	1	158	0.00	30.058 
00:40	60.4	60.4	60.4	82	54.9	0	1	158	0.00	30.058 
00:45	60.7	60.7	60.7	81	54.8	0	1	158	0.00	30.054 
00:50	60.9	60.9	60.9	81	55.0	0	1	158	0.00	30.054 
00:55	61.0	61.0	61.0	81	55.1	0	0	---	0.00	30.054 
01:00	61.0	61.0	61.0	81	55.1	0	0	---	0.00	30.042 
01:05	61.0	61.0	61.0	81	55.1	0	0	---	0.00	30.042 
01:10	60.9	60.9	60.9	81	55.0	0	0	---	0.00	30.042 
01:15	60.7	60.7	60.7	81	54.8	0	0	---	0.00	30.039 
01:20	60.7	60.7	60.7	81	54.8	0	1	158	0.00	30.039 
01:25	60.7	60.7	60.7	81	54.8	0	0	---	0.00	30.039 
01:30	60.7	60.7	60.7	81	54.8	0	0	---	0.00	30.038 
01:35	60.7	60.7	60.7	82	55.2	0	0	---	0.00	30.038 
01:40	60.9	60.9	60.9	81	55.0	0	0	---	0.00	30.038 
01:45	61.0	61.0	61.0	81	55.1	0	0	---	0.00	30.038 
01:50	60.9	60.9	60.9	81	55.0	0	0	---	0.00	30.038 
01:55	60.7	60.7	60.7	81	54.8	0	0	---	0.00	30.038 
02:00	60.5	60.5	60.5	81	54.6	0	0	---	0.00	30.035 
02:05	60.4	60.4	60.4	82	54.9	0	0	---	0.00	30.035 
02:10	60.1	60.1	60.1	82	54.6	0	0	---	0.00	30.035 
02:15	59.6	59.6	59.6	82	54.1	0	0	---	0.00	30.034 
02:20	59.3	59.3	59.3	84	54.5	0	0	---	0.00	30.034 
02:25	59.0	59.0	59.0	84	54.2	0	0	---	0.00	30.034 
02:30	58.7	58.7	58.7	84	53.9	0	0	---	0.00	30.036 
02:35	58.6	58.6	58.6	85	54.1	0	0	---	0.00	30.036 
02:40	58.4	58.4	58.4	86	54.2	0	0	---	0.00	30.036 
02:45	58.1	58.1	58.1	86	53.9	0	0	---	0.00	30.041 
02:50	57.8	57.8	57.8	86	53.6	0	0	---	0.00	30.041 
02:55	57.6	57.6	57.6	87	53.8	0	0	---	0.00	30.041 
03:00	57.6	57.6	57.6	87	53.8	0	0	---	0.00	30.041 
03:05	57.5	57.5	57.5	87	53.7	0	0	---	0.00	30.041 
03:10	57.5	57.5	57.5	88	54.0	0	0	---	0.00	30.041 
03:15	57.5	57.5	57.5	88	54.0	0	0	---	0.00	30.042 
03:20	57.5	57.5	57.5	88	54.0	0	0	---	0.00	30.042 
03:25	57.5	57.5	57.5	88	54.0	0	0	---	0.00	30.042 
03:30	57.5	57.5	57.5	88	54.0	0	0	---	0.00	30.041 
03:35	57.5	57.5	57.5	89	54.3	0	0	---	0.00	30.041 
03:40	57.8	57.8	57.8	89	54.6	0	0	---	0.00	30.041 
03:45	58.0	58.0	58.0	89	54.8	0	1	158	0.00	30.041 
03:50	58.1	58.1	58.1	89	54.9	0	0	---	0.00	30.041 
03:55	58.3	58.3	58.3	89	55.1	0	0	---	0.00	30.041 
04:00	58.3	58.3	58.3	89	55.1	0	0	---	0.00	30.034 
04:05	58.3	58.3	58.3	89	55.1	0	0	---	0.00	30.034 
04:10	58.3	58.3	58.3	88	54.8	0	0	---	0.00	30.034 
04:15	58.3	58.3	58.3	88	54.8	0	0	---	0.00	30.031 
04:20	58.3	58.3	58.3	88	54.8	0	0	---	0.00	30.031 
04:25	58.3	58.3	58.3	88	54.8	0	0	---	0.00	30.031 
04:30	58.1	58.1	58.1	89	54.9	0	0	---	0.00	30.034 
04:35	58.0	58.0	58.0	89	54.8	0	0	---	0.00	30.034 
04:40	58.0	58.0	58.0	89	54.8	0	0	---	0.00	30.034 
04:45	58.0	58.0	58.0	89	54.8	0	0	---	0.00	30.030 
04:50	58.0	58.0	58.0	89	54.8	0	0	---	0.00	30.030 
04:55	58.0	58.0	58.0	89	54.8	0	0	---	0.00	30.030 
05:00	58.1	58.1	58.1	90	55.2	0	0	---	0.00	30.040 
05:05	58.3	58.3	58.3	90	55.4	0	0	---	0.00	30.040 
05:10	58.6	58.6	58.6	90	55.7	0	1	158	0.00	30.040 
05:15	58.7	58.7	58.7	90	55.8	0	0	---	0.00	30.042 
05:20	58.9	58.9	58.9	90	56.0	0	1	158	0.00	30.042 
05:25	59.0	59.0	59.0	90	56.1	0	0	---	0.00	30.042 
05:30	59.2	59.2	59.2	90	56.3	0	1	158	0.00	30.050 
05:35	59.2	59.2	59.2	90	56.3	0	1	158	0.00	30.050 
05:40	59.2	59.2	59.2	90	56.3	0	0	---	0.00	30.050 
05:45	59.2	59.2	59.2	90	56.3	0	2	248	0.00	30.056 
05:50	59.3	59.3	59.3	90	56.4	0	1	248	0.00	30.056 
05:55	59.3	59.3	59.3	90	56.4	0	0	---	0.00	30.056 
06:00	59.3	59.3	59.3	90	56.4	0	0	---	0.00	30.061 
06:05	59.3	59.3	59.3	90	56.4	0	1	248	0.00	30.061 
06:10	59.3	59.3	59.3	90	56.4	0	1	248	0.00	30.061 
06:15	59.5	59.5	59.5	90	56.6	0	0	---	0.00	30.057 
06:20	59.5	59.5	59.5	90	56.6	0	0	---	0.00	30.057 
06:25	59.5	59.5	59.5	90	56.6	0	0	---	0.00	30.057 
06:30	59.3	59.3	59.3	90	56.4	0	0	---	0.00	30.068 
06:35	59.3	59.3	59.3	90	56.4	0	1	248	0.00	30.068 
06:40	59.3	59.3	59.3	90	56.4	0	0	---	0.00	30.068 
06:45	59.2	59.2	59.2	90	56.3	0	0	---	0.00	30.070 
06:50	59.2	59.2	59.2	90	56.3	0	0	---	0.00	30.070 
06:55	59.0	59.0	59.0	90	56.1	0	0	---	0.00	30.070 
07:00	58.9	58.9	58.9	90	56.0	0	0	---	0.00	30.072 
07:05	58.7	58.7	58.7	90	55.8	0	0	---	0.00	30.072 
07:10	58.6	58.6	58.6	90	55.7	0	0	---	0.00	30.072 
07:15	58.4	58.4	58.4	90	55.5	0	0	---	0.00	30.074 
07:20	58.3	58.3	58.3	90	55.4	0	0	---	0.00	30.074 
07:25	58.1	58.1	58.1	90	55.2	0	0	---	0.00	30.074 
07:30	58.0	58.0	58.0	90	55.1	0	0	---	0.00	30.078 
07:35	57.8	57.8	57.8	91	55.2	0	0	---	0.00	30.078 
07:40	57.6	57.6	57.6	91	55.0	0	0	---	0.00	30.078 
07:45	57.5	57.5	57.5	91	54.9	0	0	---	0.00	30.080 
07:50	57.6	57.6	57.6	92	55.3	0	0	---	0.00	30.080 
07:55	57.6	57.6	57.6	92	55.3	0	0	---	0.00	30.080 
08:00	57.8	57.8	57.8	92	55.5	0	0	---	0.00	30.082 
08:05	57.8	57.8	57.8	92	55.5	0	0	---	0.00	30.082 
08:10	58.0	58.0	58.0	92	55.7	0	1	248	0.00	30.082 
08:15	58.1	58.1	58.1	92	55.8	0	0	---	0.00	30.090 
08:20	58.1	58.1	58.1	92	55.8	0	0	---	0.00	30.090 
08:25	58.1	58.1	58.1	92	55.8	0	0	---	0.00	30.090 
08:30	58.1	58.1	58.1	92	55.8	0	0	---	0.00	30.093 
08:35	58.1	58.1	58.1	92	55.8	0	1	248	0.00	30.093 
08:40	58.3	58.3	58.3	92	56.0	0	0	---	0.00	30.093 
08:45	58.4	58.4	58.4	92	56.1	0	1	248	0.00	30.095 
08:50	58.4	58.4	58.4	92	56.1	0	1	248	0.00	30.095 
08:55	58.6	58.6	58.6	92	56.3	0	1	248	0.00	30.095 
09:00	58.7	58.7	58.7	92	56.4	0	1	248	0.00	30.095 
09:05	58.9	58.9	58.9	91	56.3	0	1	248	0.00	30.095 
09:10	59.0	59.0	59.0	91	56.4	0	1	248	0.00	30.095 
09:15	59.2	59.2	59.2	91	56.6	0	1	248	0.00	30.096 
09:20	59.3	59.3	59.3	90	56.4	0	2	248	0.00	30.096 
09:25	59.6	59.6	59.6	90	56.7	0	1	135	0.00	30.096 
09:30	59.8	59.8	59.8	89	56.5	0	1	135	0.00	30.096 
09:35	60.1	60.1	60.1	89	56.8	0	0	---	0.00	30.096 
09:40	60.2	60.2	60.2	88	56.6	0	1	135	0.00	30.096 
09:45	60.5	60.5	60.5	88	56.9	0	3	135	0.00	30.102 
09:50	60.7	60.7	60.7	87	56.8	0	3	135	0.00	30.102 
09:55	60.9	60.9	60.9	86	56.7	0	2	135	0.00	30.102 
10:00	61.2	61.2	61.2	85	56.6	0	2	158	0.00	30.100 
10:05	61.3	61.3	61.3	85	56.7	0	3	158	0.00	30.100 
10:10	61.6	61.6	61.6	85	57.0	0	2	158	0.00	30.100 
10:15	61.8	61.8	61.8	84	56.9	1	9	225	0.00	30.103 
10:20	62.1	62.1	62.1	83	56.9	0	3	225	0.00	30.103 
10:25	62.3	62.3	62.3	82	56.7	0	3	225	0.00	30.103 
10:30	62.6	62.6	62.6	82	57.0	0	3	112	0.00	30.107 
10:35	62.7	62.7	62.7	81	56.8	0	2	112	0.00	30.107 
10:40	62.9	62.9	62.9	81	57.0	0	3	270	0.00	30.107 
10:45	63.1	63.1	63.1	81	57.2	1	5	45	0.00	30.109 
10:50	63.2	63.2	63.2	81	57.3	0	1	45	0.00	30.109 
10:55	63.4	63.4	63.4	81	57.5	0	2	45	0.00	30.109 
11:00	63.5	63.5	63.5	81	57.6	1	4	45	0.00	30.111 
11:05	63.5	63.5	63.5	80	57.2	1	3	45	0.00	30.111 
11:10	63.5	63.5	63.5	80	57.2	0	2	45	0.00	30.111 
11:15	63.7	63.7	63.7	81	57.8	0	3	68	0.00	30.111 
11:20	63.7	63.7	63.7	80	57.4	1	5	270	0.00	30.111 
11:25	64.0	64.0	64.0	80	57.7	0	2	270	0.00	30.111 
11:30	64.2	64.2	64.2	80	57.9	0	3	270	0.00	30.112 
11:35	64.2	64.2	64.2	79	57.5	0	2	270	0.00	30.112 
11:40	64.2	64.2	64.2	80	57.9	0	2	270	0.00	30.112 
11:45	64.5	64.5	64.5	79	57.8	1	2	270	0.00	30.111 
11:50	64.5	64.5	64.5	78	57.5	1	4	248	0.00	30.111 
11:55	64.5	64.5	64.5	79	57.8	0	3	68	0.00	30.111 
12:00	64.3	64.3	64.3	79	57.6	1	4	248	0.00	30.111 
12:05	64.5	64.5	64.5	80	58.2	1	3	248	0.00	30.111 
12:10	64.7	64.7	64.7	79	58.0	1	3	248	0.00	30.111 
12:15	64.8	64.8	64.8	78	57.8	2	5	270	0.00	30.107 
12:20	65.5	65.5	65.5	78	58.5	1	3	248	0.00	30.107 
12:25	66.3	66.3	66.3	77	58.9	1	4	248	0.00	30.107 
12:30	66.6	66.6	66.6	74	58.0	2	6	248	0.00	30.103 
12:35	66.6	66.6	66.6	74	58.0	1	4	248	0.00	30.103 
12:40	66.8	66.8	66.8	73	57.9	1	5	248	0.00	30.103 
12:45	66.4	66.4	66.4	73	57.5	1	4	248	0.00	30.102 
12:50	66.4	66.4	66.4	74	57.9	1	4	248	0.00	30.102 
12:55	66.4	66.4	66.4	74	57.9	1	5	270	0.00	30.102 
13:00	66.6	66.6	66.6	74	58.0	1	4	270	0.00	30.095 
13:05	67.1	67.1	67.1	74	58.5	1	3	270	0.00	30.095 
13:10	67.8	67.8	67.8	73	58.8	2	4	270	0.00	30.095 
13:15	67.6	67.6	67.6	72	58.2	1	3	248	0.00	30.090 
13:20	67.6	67.6	67.6	72	58.2	2	6	248	0.00	30.090 
13:25	67.4	67.4	67.4	71	57.7	1	3	248	0.00	30.090 
13:30	67.6	67.6	67.6	72	58.2	1	3	248	0.00	30.087 
13:35	67.9	67.9	67.9	72	58.5	1	3	248	0.00	30.087 
13:40	68.6	68.6	68.6	72	59.2	1	4	270	0.00	30.087 
13:45	68.9	68.9	68.9	67	57.5	2	6	248	0.00	30.079 
13:50	68.9	68.9	68.9	65	56.6	2	5	248	0.00	30.079 
13:55	68.8	68.8	68.8	66	57.0	2	6	248	0.00	30.079 
14:00	68.8	68.8	68.8	66	57.0	2	4	248	0.00	30.077 
14:05	68.6	68.6	68.6	65	56.4	1	4	248	0.00	30.077 
14:10	68.8	68.8	68.8	65	56.5	1	4	248	0.00	30.077 
14:15	69.1	69.1	69.1	66	57.3	1	4	248	0.00	30.077 
14:20	69.8	69.8	69.8	65	57.5	1	4	248	0.00	30.077 
14:25	70.3	70.3	70.3	61	56.2	2	5	248	0.00	30.077 
14:30	70.3	70.3	70.3	62	56.7	1	6	248	0.00	30.072 
14:35	70.4	70.4	70.4	62	56.7	1	4	270	0.00	30.072 
14:40	71.3	71.3	71.3	63	58.0	1	3	22	0.00	30.072 
14:45	71.1	71.1	71.1	60	56.5	1	4	292	0.00	30.061 
14:50	70.8	70.8	70.8	60	56.2	1	3	248	0.00	30.061 
14:55	70.4	70.4	70.4	59	55.4	2	6	248	0.00	30.061 
15:00	69.9	69.9	69.9	59	54.9	2	4	248	0.00	30.058 
15:05	69.8	69.8	69.8	61	55.7	1	3	248	0.00	30.058 
15:10	69.9	69.9	69.9	62	56.3	1	5	248	0.00	30.058 
15:15	70.6	70.6	70.6	60	56.0	2	5	248	0.00	30.047 
15:20	71.3	71.3	71.3	61	57.1	2	3	248	0.00	30.047 
15:25	71.8	71.8	71.8	59	56.7	2	4	248	0.00	30.047 
15:30	71.6	71.6	71.6	58	56.0	2	5	270	0.00	30.042 
15:35	71.5	71.5	71.5	58	55.9	2	5	248	0.00	30.042 
15:40	71.5	71.5	71.5	58	55.9	2	4	248	0.00	30.042 
15:45	71.8	71.8	71.8	57	55.7	2	5	248	0.00	30.040 
15:50	71.8	71.8	71.8	58	56.2	2	5	315	0.00	30.040 
15:55	72.1	72.1	72.1	58	56.5	2	5	248	0.00	30.040 
16:00	72.5	72.5	72.5	57	56.4	2	3	270	0.00	30.032 
16:05	72.8	72.8	72.8	57	56.7	2	4	248	0.00	30.032 
16:10	72.7	72.7	72.7	56	56.1	2	4	248	0.00	30.032 
16:15	73.3	73.3	73.3	56	56.6	1	4	248	0.00	30.027 
16:20	73.2	73.2	73.2	56	56.5	2	5	225	0.00	30.027 
16:25	73.0	73.0	73.0	56	56.4	1	3	225	0.00	30.027 
16:30	72.7	72.7	72.7	56	56.1	2	3	292	0.00	30.025 
16:35	72.8	72.8	72.8	56	56.2	1	4	248	0.00	30.025 
16:40	73.2	73.2	73.2	55	56.0	1	4	292	0.00	30.025 
16:45	73.3	73.3	73.3	54	55.6	2	5	248	0.00	30.027 
16:50	73.3	73.3	73.3	54	55.6	1	4	225	0.00	30.027 
16:55	73.3	73.3	73.3	54	55.6	2	5	270	0.00	30.027 
17:00	73.3	73.3	73.3	54	55.6	1	4	270	0.00	30.026 
17:05	73.5	73.5	73.5	54	55.8	2	4	338	0.00	30.026 
17:10	73.7	73.7	73.7	54	56.0	1	4	270	0.00	30.026 
17:15	73.7	73.7	73.7	54	56.0	2	4	270	0.00	30.023 
17:20	73.7	73.7	73.7	53	55.5	1	3	248	0.00	30.023 
17:25	73.9	73.9	73.9	52	55.1	2	6	248	0.00	30.023 
17:30	73.7	73.7	73.7	52	55.0	2	5	248	0.00	30.022 
17:35	73.7	73.7	73.7	53	55.5	2	4	248	0.00	30.022 
17:40	73.7	73.7	73.7	52	55.0	1	4	270	0.00	30.022 
17:45	73.7	73.7	73.7	52	55.0	2	5	248	0.00	30.018 
17:50	73.7	73.7	73.7	53	55.5	2	4	270	0.00	30.018 
17:55	73.7	73.7	73.7	53	55.5	1	2	270	0.00	30.018 
18:00	73.5	73.5	73.5	51	54.2	1	3	270	0.00	30.019 
18:05	73.5	73.5	73.5	52	54.8	1	4	248	0.00	30.019 
18:10	73.5	73.5	73.5	52	54.8	1	3	248	0.00	30.019 
18:15	73.3	73.3	73.3	53	55.1	1	3	248	0.00	30.018 
18:20	73.2	73.2	73.2	52	54.5	1	3	338	0.00	30.018 
18:25	73.3	73.3	73.3	53	55.1	1	3	248	0.00	30.018 
18:30	73.2	73.2	73.2	52	54.5	1	2	338	0.00	30.014 
18:35	73.0	73.0	73.0	52	54.3	0	2	338	0.00	30.014 
18:40	73.0	73.0	73.0	53	54.8	0	2	338	0.00	30.014 
18:45	72.8	72.8	72.8	53	54.7	0	1	338	0.00	30.011 
18:50	72.7	72.7	72.7	53	54.6	0	1	338	0.00	30.011 
18:55	72.7	72.7	72.7	54	55.1	0	1	338	0.00	30.011 
19:00	72.5	72.5	72.5	54	54.9	0	2	338	0.00	30.011 
19:05	72.3	72.3	72.3	54	54.7	0	1	338	0.00	30.011 
19:10	72.1	72.1	72.1	55	55.0	0	1	338	0.00	30.011 
19:15	72.0	72.0	72.0	55	54.9	0	1	338	0.00	30.012 
19:20	71.8	71.8	71.8	55	54.7	0	1	338	0.00	30.012 
19:25	71.6	71.6	71.6	55	54.6	0	1	338	0.00	30.012 
19:30	71.5	71.5	71.5	56	55.0	0	0	---	0.00	30.013 
19:35	71.1	71.1	71.1	57	55.1	0	0	---	0.00	30.013 
19:40	70.6	70.6	70.6	57	54.6	0	0	---	0.00	30.013 
19:45	70.1	70.1	70.1	58	54.6	0	0	---	0.00	30.022 
19:50	69.6	69.6	69.6	59	54.6	0	0	---	0.00	30.022 
19:55	69.1	69.1	69.1	61	55.1	0	0	---	0.00	30.022 
20:00	68.4	68.4	68.4	61	54.4	0	0	---	0.00	30.026 
20:05	67.9	67.9	67.9	62	54.4	0	0	---	0.00	30.026 
20:10	67.3	67.3	67.3	64	54.7	0	0	---	0.00	30.026 
20:15	66.6	66.6	66.6	65	54.5	0	0	---	0.00	30.028 
20:20	66.3	66.3	66.3	67	55.0	0	0	---	0.00	30.028 
20:25	65.8	65.8	65.8	67	54.5	0	0	---	0.00	30.028 
20:30	65.5	65.5	65.5	68	54.7	0	0	---	0.00	30.031 
20:35	65.0	65.0	65.0	69	54.6	0	0	---	0.00	30.031 
20:40	64.5	64.5	64.5	71	54.9	0	0	---	0.00	30.031 
20:45	64.2	64.2	64.2	71	54.6	0	0	---	0.00	30.034 
20:50	63.9	63.9	63.9	72	54.7	0	0	---	0.00	30.034 
20:55	63.5	63.5	63.5	73	54.7	0	0	---	0.00	30.034 
21:00	63.2	63.2	63.2	73	54.4	0	0	---	0.00	30.037 
21:05	63.1	63.1	63.1	74	54.7	0	0	---	0.00	30.037 
21:10	62.9	62.9	62.9	74	54.5	0	0	---	0.00	30.037 
21:15	62.9	62.9	62.9	75	54.8	0	0	---	0.00	30.035 
21:20	62.7	62.7	62.7	75	54.7	0	0	---	0.00	30.035 
21:25	62.6	62.6	62.6	75	54.6	0	0	---	0.00	30.035 
21:30	62.4	62.4	62.4	76	54.7	0	0	---	0.00	30.041 
21:35	62.3	62.3	62.3	77	55.0	0	0	---	0.00	30.041 
21:40	62.0	62.0	62.0	77	54.7	0	0	---	0.00	30.041 
21:45	61.6	61.6	61.6	77	54.3	0	0	---	0.00	30.044 
21:50	61.5	61.5	61.5	78	54.6	0	0	---	0.00	30.044 
21:55	61.2	61.2	61.2	78	54.3	0	0	---	0.00	30.044 
22:00	60.9	60.9	60.9	79	54.3	0	0	---	0.00	30.041 
22:05	60.7	60.7	60.7	80	54.5	0	0	---	0.00	30.041 
22:10	60.4	60.4	60.4	80	54.2	0	0	---	0.00	30.041 
22:15	60.2	60.2	60.2	81	54.3	0	0	---	0.00	30.037 
22:20	59.9	59.9	59.9	81	54.1	0	0	---	0.00	30.037 
22:25	59.8	59.8	59.8	81	54.0	0	0	---	0.00	30.037 
22:30	59.6	59.6	59.6	81	53.8	0	0	---	0.00	30.035 
22:35	59.5	59.5	59.5	82	54.0	0	0	---	0.00	30.035 
22:40	59.2	59.2	59.2	82	53.7	0	0	---	0.00	30.035 
22:45	59.0	59.0	59.0	83	53.8	0	0	---	0.00	30.038 
22:50	58.9	58.9	58.9	83	53.7	0	0	---	0.00	30.038 
22:55	58.7	58.7	58.7	84	53.9	0	0	---	0.00	30.038 
23:00	58.6	58.6	58.6	84	53.8	0	0	---	0.00	30.039 
23:05	58.4	58.4	58.4	84	53.6	0	0	---	0.00	30.039 
23:10	58.3	58.3	58.3	84	53.5	0	0	---	0.00	30.039 
23:15	58.3	58.3	58.3	85	53.8	0	0	---	0.00	30.037 
23:20	58.1	58.1	58.1	85	53.6	0	0	---	0.00	30.037 
23:25	58.1	58.1	58.1	85	53.6	0	0	---	0.00	30.037 
23:30	58.0	58.0	58.0	85	53.5	0	0	---	0.00	30.037 
23:35	57.6	57.6	57.6	86	53.4	0	0	---	0.00	30.037 
23:40	57.5	57.5	57.5	86	53.3	0	0	---	0.00	30.037 
23:45	57.3	57.3	57.3	86	53.1	0	0	---	0.00	30.038 
23:50	57.2	57.2	57.2	87	53.4	0	0	---	0.00	30.038 
23:55	57.2	57.2	57.2	87	53.4	0	0	---	0.00	30.038 

CoCoRaHS
IN-AL-39
A2 Web Hosting
Creative Commons License
GoDaddy
search engine by freefind advanced

loaded 2018-11-20 14:25:58 • last modified 2010-11-18 10:43:29
Privacy PolicyDisclaimer
• wx.awcolley.com is powered by PmWiki v.2002016 •
• all content (unless otherwise noted) © 2018 A W Colley